sensor_id;sensor_type;location;lat;lon;timestamp;P1;durP1;ratioP1;P2;durP2;ratioP2
84301;SDS011;74468;52.218;6.896;2024-01-07T00:00:40;4.50;;;2.67;;
84301;SDS011;74468;52.218;6.896;2024-01-07T00:03:05;3.75;;;2.58;;
84301;SDS011;74468;52.218;6.896;2024-01-07T00:05:30;4.15;;;2.40;;
84301;SDS011;74468;52.218;6.896;2024-01-07T00:07:56;5.72;;;2.65;;
84301;SDS011;74468;52.218;6.896;2024-01-07T00:10:21;3.70;;;3.13;;
84301;SDS011;74468;52.218;6.896;2024-01-07T00:12:47;4.88;;;3.42;;
84301;SDS011;74468;52.218;6.896;2024-01-07T00:15:13;3.67;;;2.42;;
84301;SDS011;74468;52.218;6.896;2024-01-07T00:17:38;5.03;;;3.80;;
84301;SDS011;74468;52.218;6.896;2024-01-07T00:20:04;4.35;;;2.40;;
84301;SDS011;74468;52.218;6.896;2024-01-07T00:22:30;4.18;;;2.47;;
84301;SDS011;74468;52.218;6.896;2024-01-07T00:24:56;4.50;;;2.80;;
84301;SDS011;74468;52.218;6.896;2024-01-07T00:27:21;6.07;;;2.83;;
84301;SDS011;74468;52.218;6.896;2024-01-07T00:29:46;3.78;;;2.40;;
84301;SDS011;74468;52.218;6.896;2024-01-07T00:32:12;4.88;;;3.50;;
84301;SDS011;74468;52.218;6.896;2024-01-07T00:34:37;4.97;;;2.80;;
84301;SDS011;74468;52.218;6.896;2024-01-07T00:37:02;3.65;;;2.40;;
84301;SDS011;74468;52.218;6.896;2024-01-07T00:39:28;4.35;;;3.08;;
84301;SDS011;74468;52.218;6.896;2024-01-07T00:41:53;3.97;;;2.38;;
84301;SDS011;74468;52.218;6.896;2024-01-07T00:44:18;3.97;;;3.03;;
84301;SDS011;74468;52.218;6.896;2024-01-07T00:46:44;4.25;;;3.22;;
84301;SDS011;74468;52.218;6.896;2024-01-07T00:49:09;3.92;;;2.50;;
84301;SDS011;74468;52.218;6.896;2024-01-07T00:51:35;3.97;;;2.50;;
84301;SDS011;74468;52.218;6.896;2024-01-07T00:54:00;3.78;;;2.33;;
84301;SDS011;74468;52.218;6.896;2024-01-07T00:56:26;3.97;;;2.50;;
84301;SDS011;74468;52.218;6.896;2024-01-07T00:58:52;3.45;;;2.65;;
84301;SDS011;74468;52.218;6.896;2024-01-07T01:01:17;3.85;;;2.47;;
84301;SDS011;74468;52.218;6.896;2024-01-07T01:03:42;4.60;;;3.25;;
84301;SDS011;74468;52.218;6.896;2024-01-07T01:06:08;4.13;;;2.60;;
84301;SDS011;74468;52.218;6.896;2024-01-07T01:08:33;3.65;;;2.22;;
84301;SDS011;74468;52.218;6.896;2024-01-07T01:10:59;3.90;;;2.78;;
84301;SDS011;74468;52.218;6.896;2024-01-07T01:13:24;3.50;;;2.60;;
84301;SDS011;74468;52.218;6.896;2024-01-07T01:15:50;3.63;;;2.42;;
84301;SDS011;74468;52.218;6.896;2024-01-07T01:18:15;4.28;;;2.35;;
84301;SDS011;74468;52.218;6.896;2024-01-07T01:20:40;4.05;;;2.53;;
84301;SDS011;74468;52.218;6.896;2024-01-07T01:23:06;3.75;;;2.10;;
84301;SDS011;74468;52.218;6.896;2024-01-07T01:25:31;3.80;;;2.13;;
84301;SDS011;74468;52.218;6.896;2024-01-07T01:27:56;3.25;;;2.20;;
84301;SDS011;74468;52.218;6.896;2024-01-07T01:30:22;3.38;;;2.33;;
84301;SDS011;74468;52.218;6.896;2024-01-07T01:32:47;3.88;;;2.58;;
84301;SDS011;74468;52.218;6.896;2024-01-07T01:35:13;3.78;;;2.30;;
84301;SDS011;74468;52.218;6.896;2024-01-07T01:37:38;5.38;;;3.00;;
84301;SDS011;74468;52.218;6.896;2024-01-07T01:40:04;4.32;;;2.40;;
84301;SDS011;74468;52.218;6.896;2024-01-07T01:42:29;3.83;;;2.50;;
84301;SDS011;74468;52.218;6.896;2024-01-07T01:44:55;2.85;;;2.20;;
84301;SDS011;74468;52.218;6.896;2024-01-07T01:47:24;4.97;;;2.55;;
84301;SDS011;74468;52.218;6.896;2024-01-07T01:49:50;3.92;;;2.30;;
84301;SDS011;74468;52.218;6.896;2024-01-07T01:52:15;3.17;;;2.65;;
84301;SDS011;74468;52.218;6.896;2024-01-07T01:54:40;2.78;;;2.13;;
84301;SDS011;74468;52.218;6.896;2024-01-07T01:57:06;4.03;;;2.10;;
84301;SDS011;74468;52.218;6.896;2024-01-07T01:59:34;2.83;;;1.90;;
84301;SDS011;74468;52.218;6.896;2024-01-07T02:02:00;3.20;;;2.10;;
84301;SDS011;74468;52.218;6.896;2024-01-07T02:04:26;3.67;;;2.35;;
84301;SDS011;74468;52.218;6.896;2024-01-07T02:06:52;3.55;;;2.50;;
84301;SDS011;74468;52.218;6.896;2024-01-07T02:09:17;4.47;;;2.20;;
84301;SDS011;74468;52.218;6.896;2024-01-07T02:11:42;3.70;;;2.30;;
84301;SDS011;74468;52.218;6.896;2024-01-07T02:14:08;3.88;;;2.40;;
84301;SDS011;74468;52.218;6.896;2024-01-07T02:16:33;3.15;;;2.30;;
84301;SDS011;74468;52.218;6.896;2024-01-07T02:18:58;4.03;;;2.30;;
84301;SDS011;74468;52.218;6.896;2024-01-07T02:21:24;2.88;;;1.92;;
84301;SDS011;74468;52.218;6.896;2024-01-07T02:23:49;4.53;;;2.30;;
84301;SDS011;74468;52.218;6.896;2024-01-07T02:26:15;3.95;;;2.65;;
84301;SDS011;74468;52.218;6.896;2024-01-07T02:28:40;3.30;;;1.83;;
84301;SDS011;74468;52.218;6.896;2024-01-07T02:31:06;2.60;;;1.63;;
84301;SDS011;74468;52.218;6.896;2024-01-07T02:33:32;3.05;;;1.80;;
84301;SDS011;74468;52.218;6.896;2024-01-07T02:35:57;2.42;;;1.67;;
84301;SDS011;74468;52.218;6.896;2024-01-07T02:38:23;4.10;;;2.13;;
84301;SDS011;74468;52.218;6.896;2024-01-07T02:40:48;3.08;;;1.90;;
84301;SDS011;74468;52.218;6.896;2024-01-07T02:43:13;2.75;;;1.90;;
84301;SDS011;74468;52.218;6.896;2024-01-07T02:45:39;3.78;;;2.65;;
84301;SDS011;74468;52.218;6.896;2024-01-07T02:48:04;3.83;;;1.90;;
84301;SDS011;74468;52.218;6.896;2024-01-07T02:50:31;2.88;;;2.50;;
84301;SDS011;74468;52.218;6.896;2024-01-07T02:52:57;3.05;;;2.75;;
84301;SDS011;74468;52.218;6.896;2024-01-07T02:55:22;2.95;;;1.90;;
84301;SDS011;74468;52.218;6.896;2024-01-07T02:57:47;3.10;;;2.10;;
84301;SDS011;74468;52.218;6.896;2024-01-07T03:00:13;3.13;;;2.30;;
84301;SDS011;74468;52.218;6.896;2024-01-07T03:02:38;3.08;;;1.90;;
84301;SDS011;74468;52.218;6.896;2024-01-07T03:05:04;2.40;;;1.65;;
84301;SDS011;74468;52.218;6.896;2024-01-07T03:07:30;2.72;;;1.80;;
84301;SDS011;74468;52.218;6.896;2024-01-07T03:09:55;2.63;;;1.65;;
84301;SDS011;74468;52.218;6.896;2024-01-07T03:12:20;2.40;;;1.75;;
84301;SDS011;74468;52.218;6.896;2024-01-07T03:14:46;2.70;;;2.38;;
84301;SDS011;74468;52.218;6.896;2024-01-07T03:17:11;2.67;;;2.00;;
84301;SDS011;74468;52.218;6.896;2024-01-07T03:19:37;2.63;;;1.85;;
84301;SDS011;74468;52.218;6.896;2024-01-07T03:22:03;3.25;;;2.22;;
84301;SDS011;74468;52.218;6.896;2024-01-07T03:24:29;2.97;;;2.42;;
84301;SDS011;74468;52.218;6.896;2024-01-07T03:26:54;2.65;;;1.90;;
84301;SDS011;74468;52.218;6.896;2024-01-07T03:29:19;2.75;;;1.90;;
84301;SDS011;74468;52.218;6.896;2024-01-07T03:31:45;2.35;;;1.77;;
84301;SDS011;74468;52.218;6.896;2024-01-07T03:34:10;2.28;;;1.63;;
84301;SDS011;74468;52.218;6.896;2024-01-07T03:36:35;3.30;;;1.75;;
84301;SDS011;74468;52.218;6.896;2024-01-07T03:39:01;3.45;;;2.10;;
84301;SDS011;74468;52.218;6.896;2024-01-07T03:41:26;2.55;;;1.75;;
84301;SDS011;74468;52.218;6.896;2024-01-07T03:43:52;2.40;;;1.73;;
84301;SDS011;74468;52.218;6.896;2024-01-07T03:46:18;3.33;;;1.90;;
84301;SDS011;74468;52.218;6.896;2024-01-07T03:48:44;2.67;;;1.80;;
84301;SDS011;74468;52.218;6.896;2024-01-07T03:51:09;2.45;;;1.63;;
84301;SDS011;74468;52.218;6.896;2024-01-07T03:53:35;2.80;;;1.92;;
84301;SDS011;74468;52.218;6.896;2024-01-07T03:56:00;2.92;;;1.80;;
84301;SDS011;74468;52.218;6.896;2024-01-07T03:58:25;2.30;;;1.75;;
84301;SDS011;74468;52.218;6.896;2024-01-07T04:00:51;3.42;;;2.60;;
84301;SDS011;74468;52.218;6.896;2024-01-07T04:03:16;2.85;;;2.05;;
84301;SDS011;74468;52.218;6.896;2024-01-07T04:05:41;2.70;;;1.75;;
84301;SDS011;74468;52.218;6.896;2024-01-07T04:08:10;2.78;;;1.92;;
84301;SDS011;74468;52.218;6.896;2024-01-07T04:10:36;2.42;;;1.70;;
84301;SDS011;74468;52.218;6.896;2024-01-07T04:13:02;2.00;;;1.60;;
84301;SDS011;74468;52.218;6.896;2024-01-07T04:15:29;2.97;;;1.83;;
84301;SDS011;74468;52.218;6.896;2024-01-07T04:17:54;2.97;;;1.98;;
84301;SDS011;74468;52.218;6.896;2024-01-07T04:20:20;2.40;;;1.60;;
84301;SDS011;74468;52.218;6.896;2024-01-07T04:22:45;2.47;;;1.80;;
84301;SDS011;74468;52.218;6.896;2024-01-07T04:25:11;4.75;;;1.70;;
84301;SDS011;74468;52.218;6.896;2024-01-07T04:27:36;2.60;;;2.40;;
84301;SDS011;74468;52.218;6.896;2024-01-07T04:30:05;2.72;;;1.73;;
84301;SDS011;74468;52.218;6.896;2024-01-07T04:32:31;3.47;;;2.17;;
84301;SDS011;74468;52.218;6.896;2024-01-07T04:34:57;2.08;;;1.67;;
84301;SDS011;74468;52.218;6.896;2024-01-07T04:37:25;2.65;;;2.03;;
84301;SDS011;74468;52.218;6.896;2024-01-07T04:39:51;2.17;;;1.65;;
84301;SDS011;74468;52.218;6.896;2024-01-07T04:42:18;2.45;;;1.90;;
84301;SDS011;74468;52.218;6.896;2024-01-07T04:44:43;2.40;;;1.85;;
84301;SDS011;74468;52.218;6.896;2024-01-07T04:49:53;3.53;;;2.70;;
84301;SDS011;74468;52.218;6.896;2024-01-07T04:52:19;3.67;;;2.20;;
84301;SDS011;74468;52.218;6.896;2024-01-07T04:54:45;3.13;;;2.10;;
84301;SDS011;74468;52.218;6.896;2024-01-07T04:57:10;2.95;;;2.72;;
84301;SDS011;74468;52.218;6.896;2024-01-07T04:59:36;2.67;;;1.85;;
84301;SDS011;74468;52.218;6.896;2024-01-07T05:02:01;2.97;;;2.33;;
84301;SDS011;74468;52.218;6.896;2024-01-07T05:04:27;2.78;;;1.70;;
84301;SDS011;74468;52.218;6.896;2024-01-07T05:06:52;2.78;;;2.00;;
84301;SDS011;74468;52.218;6.896;2024-01-07T05:09:17;3.03;;;2.72;;
84301;SDS011;74468;52.218;6.896;2024-01-07T05:11:43;2.58;;;1.95;;
84301;SDS011;74468;52.218;6.896;2024-01-07T05:14:08;2.72;;;1.88;;
84301;SDS011;74468;52.218;6.896;2024-01-07T05:16:33;2.67;;;1.80;;
84301;SDS011;74468;52.218;6.896;2024-01-07T05:18:59;2.85;;;1.75;;
84301;SDS011;74468;52.218;6.896;2024-01-07T05:21:24;4.63;;;2.20;;
84301;SDS011;74468;52.218;6.896;2024-01-07T05:23:50;3.08;;;2.33;;
84301;SDS011;74468;52.218;6.896;2024-01-07T05:26:15;2.63;;;1.90;;
84301;SDS011;74468;52.218;6.896;2024-01-07T05:28:40;3.10;;;2.45;;
84301;SDS011;74468;52.218;6.896;2024-01-07T05:31:13;2.65;;;2.00;;
84301;SDS011;74468;52.218;6.896;2024-01-07T05:33:39;1.80;;;1.30;;
84301;SDS011;74468;52.218;6.896;2024-01-07T05:36:05;3.60;;;1.90;;
84301;SDS011;74468;52.218;6.896;2024-01-07T05:38:31;4.35;;;2.20;;
84301;SDS011;74468;52.218;6.896;2024-01-07T05:40:56;2.63;;;1.80;;
84301;SDS011;74468;52.218;6.896;2024-01-07T05:43:21;3.45;;;1.95;;
84301;SDS011;74468;52.218;6.896;2024-01-07T05:45:47;4.10;;;1.98;;
84301;SDS011;74468;52.218;6.896;2024-01-07T05:48:12;2.38;;;2.05;;
84301;SDS011;74468;52.218;6.896;2024-01-07T05:50:37;3.28;;;2.22;;
84301;SDS011;74468;52.218;6.896;2024-01-07T05:53:03;2.42;;;1.73;;
84301;SDS011;74468;52.218;6.896;2024-01-07T05:55:28;3.20;;;2.15;;
84301;SDS011;74468;52.218;6.896;2024-01-07T05:57:54;2.38;;;1.83;;
84301;SDS011;74468;52.218;6.896;2024-01-07T06:00:19;2.20;;;1.80;;
84301;SDS011;74468;52.218;6.896;2024-01-07T06:02:44;2.55;;;1.90;;
84301;SDS011;74468;52.218;6.896;2024-01-07T06:05:10;2.13;;;1.60;;
84301;SDS011;74468;52.218;6.896;2024-01-07T06:07:35;2.50;;;1.60;;
84301;SDS011;74468;52.218;6.896;2024-01-07T06:10:01;3.35;;;1.90;;
84301;SDS011;74468;52.218;6.896;2024-01-07T06:12:26;2.20;;;1.50;;
84301;SDS011;74468;52.218;6.896;2024-01-07T06:14:51;2.30;;;1.77;;
84301;SDS011;74468;52.218;6.896;2024-01-07T06:17:17;2.78;;;1.65;;
84301;SDS011;74468;52.218;6.896;2024-01-07T06:19:42;3.10;;;1.80;;
84301;SDS011;74468;52.218;6.896;2024-01-07T06:22:07;2.40;;;1.88;;
84301;SDS011;74468;52.218;6.896;2024-01-07T06:24:33;2.20;;;1.63;;
84301;SDS011;74468;52.218;6.896;2024-01-07T06:26:58;2.38;;;1.60;;
84301;SDS011;74468;52.218;6.896;2024-01-07T06:29:24;1.92;;;1.58;;
84301;SDS011;74468;52.218;6.896;2024-01-07T06:31:49;2.63;;;1.73;;
84301;SDS011;74468;52.218;6.896;2024-01-07T06:34:15;2.38;;;1.50;;
84301;SDS011;74468;52.218;6.896;2024-01-07T06:36:40;2.42;;;1.77;;
84301;SDS011;74468;52.218;6.896;2024-01-07T06:39:07;2.75;;;1.83;;
84301;SDS011;74468;52.218;6.896;2024-01-07T06:41:33;3.10;;;1.75;;
84301;SDS011;74468;52.218;6.896;2024-01-07T06:43:59;2.28;;;1.50;;
84301;SDS011;74468;52.218;6.896;2024-01-07T06:46:24;1.92;;;1.50;;
84301;SDS011;74468;52.218;6.896;2024-01-07T06:48:50;3.10;;;1.80;;
84301;SDS011;74468;52.218;6.896;2024-01-07T06:51:15;2.03;;;1.55;;
84301;SDS011;74468;52.218;6.896;2024-01-07T06:53:41;2.90;;;1.52;;
84301;SDS011;74468;52.218;6.896;2024-01-07T06:56:06;2.45;;;1.60;;
84301;SDS011;74468;52.218;6.896;2024-01-07T06:58:31;2.90;;;1.85;;
84301;SDS011;74468;52.218;6.896;2024-01-07T07:00:57;2.42;;;1.55;;
84301;SDS011;74468;52.218;6.896;2024-01-07T07:03:23;2.63;;;1.60;;
84301;SDS011;74468;52.218;6.896;2024-01-07T07:05:48;2.55;;;1.58;;
84301;SDS011;74468;52.218;6.896;2024-01-07T07:08:13;2.40;;;2.20;;
84301;SDS011;74468;52.218;6.896;2024-01-07T07:10:39;3.20;;;1.52;;
84301;SDS011;74468;52.218;6.896;2024-01-07T07:13:04;2.92;;;1.67;;
84301;SDS011;74468;52.218;6.896;2024-01-07T07:15:29;1.98;;;1.40;;
84301;SDS011;74468;52.218;6.896;2024-01-07T07:17:55;1.85;;;1.38;;
84301;SDS011;74468;52.218;6.896;2024-01-07T07:20:21;1.88;;;1.58;;
84301;SDS011;74468;52.218;6.896;2024-01-07T07:22:46;2.33;;;1.50;;
84301;SDS011;74468;52.218;6.896;2024-01-07T07:25:12;2.15;;;1.40;;
84301;SDS011;74468;52.218;6.896;2024-01-07T07:27:37;2.30;;;1.55;;
84301;SDS011;74468;52.218;6.896;2024-01-07T07:30:03;3.00;;;1.63;;
84301;SDS011;74468;52.218;6.896;2024-01-07T07:32:29;2.80;;;2.08;;
84301;SDS011;74468;52.218;6.896;2024-01-07T07:34:55;1.88;;;1.50;;
84301;SDS011;74468;52.218;6.896;2024-01-07T07:37:20;1.98;;;1.40;;
84301;SDS011;74468;52.218;6.896;2024-01-07T07:39:46;2.17;;;1.23;;
84301;SDS011;74468;52.218;6.896;2024-01-07T07:42:11;2.90;;;1.50;;
84301;SDS011;74468;52.218;6.896;2024-01-07T07:44:36;1.75;;;1.38;;
84301;SDS011;74468;52.218;6.896;2024-01-07T07:47:04;2.13;;;1.70;;
84301;SDS011;74468;52.218;6.896;2024-01-07T07:49:29;2.42;;;1.70;;
84301;SDS011;74468;52.218;6.896;2024-01-07T07:51:55;2.13;;;1.35;;
84301;SDS011;74468;52.218;6.896;2024-01-07T07:54:20;2.05;;;1.48;;
84301;SDS011;74468;52.218;6.896;2024-01-07T07:56:46;1.85;;;1.58;;
84301;SDS011;74468;52.218;6.896;2024-01-07T07:59:11;2.80;;;1.40;;
84301;SDS011;74468;52.218;6.896;2024-01-07T08:01:36;2.92;;;1.75;;
84301;SDS011;74468;52.218;6.896;2024-01-07T08:04:02;2.03;;;1.30;;
84301;SDS011;74468;52.218;6.896;2024-01-07T08:06:30;4.45;;;1.63;;
84301;SDS011;74468;52.218;6.896;2024-01-07T08:08:55;2.55;;;1.60;;
84301;SDS011;74468;52.218;6.896;2024-01-07T08:11:20;2.20;;;1.48;;
84301;SDS011;74468;52.218;6.896;2024-01-07T08:13:46;3.15;;;1.48;;
84301;SDS011;74468;52.218;6.896;2024-01-07T08:16:12;2.05;;;1.50;;
84301;SDS011;74468;52.218;6.896;2024-01-07T08:18:38;2.13;;;1.60;;
84301;SDS011;74468;52.218;6.896;2024-01-07T08:21:03;1.65;;;1.25;;
84301;SDS011;74468;52.218;6.896;2024-01-07T08:23:29;1.80;;;1.30;;
84301;SDS011;74468;52.218;6.896;2024-01-07T08:25:54;2.95;;;1.70;;
84301;SDS011;74468;52.218;6.896;2024-01-07T08:28:20;1.83;;;1.42;;
84301;SDS011;74468;52.218;6.896;2024-01-07T08:30:45;1.92;;;1.23;;
84301;SDS011;74468;52.218;6.896;2024-01-07T08:33:11;2.05;;;1.48;;
84301;SDS011;74468;52.218;6.896;2024-01-07T08:35:36;2.35;;;1.50;;
84301;SDS011;74468;52.218;6.896;2024-01-07T08:38:02;1.95;;;1.40;;
84301;SDS011;74468;52.218;6.896;2024-01-07T08:40:28;2.22;;;1.38;;
84301;SDS011;74468;52.218;6.896;2024-01-07T08:42:54;3.00;;;1.60;;
84301;SDS011;74468;52.218;6.896;2024-01-07T08:45:20;2.75;;;1.85;;
84301;SDS011;74468;52.218;6.896;2024-01-07T08:47:45;1.70;;;1.23;;
84301;SDS011;74468;52.218;6.896;2024-01-07T08:50:11;3.30;;;1.80;;
84301;SDS011;74468;52.218;6.896;2024-01-07T08:52:37;2.55;;;1.55;;
84301;SDS011;74468;52.218;6.896;2024-01-07T08:55:03;2.25;;;1.48;;
84301;SDS011;74468;52.218;6.896;2024-01-07T08:57:30;1.88;;;1.30;;
84301;SDS011;74468;52.218;6.896;2024-01-07T08:59:56;3.03;;;1.40;;
84301;SDS011;74468;52.218;6.896;2024-01-07T09:02:21;2.08;;;1.30;;
84301;SDS011;74468;52.218;6.896;2024-01-07T09:04:47;1.40;;;1.15;;
84301;SDS011;74468;52.218;6.896;2024-01-07T09:07:12;1.48;;;1.10;;
84301;SDS011;74468;52.218;6.896;2024-01-07T09:09:38;2.45;;;1.35;;
84301;SDS011;74468;52.218;6.896;2024-01-07T09:12:03;2.63;;;1.40;;
84301;SDS011;74468;52.218;6.896;2024-01-07T09:14:29;2.08;;;1.25;;
84301;SDS011;74468;52.218;6.896;2024-01-07T09:16:55;2.40;;;1.35;;
84301;SDS011;74468;52.218;6.896;2024-01-07T09:19:20;2.08;;;1.20;;
84301;SDS011;74468;52.218;6.896;2024-01-07T09:21:46;2.65;;;1.30;;
84301;SDS011;74468;52.218;6.896;2024-01-07T09:24:11;1.45;;;1.23;;
84301;SDS011;74468;52.218;6.896;2024-01-07T09:26:37;2.30;;;1.40;;
84301;SDS011;74468;52.218;6.896;2024-01-07T09:29:02;2.05;;;1.70;;
84301;SDS011;74468;52.218;6.896;2024-01-07T09:31:28;2.08;;;1.40;;
84301;SDS011;74468;52.218;6.896;2024-01-07T09:33:53;2.45;;;1.13;;
84301;SDS011;74468;52.218;6.896;2024-01-07T09:36:18;2.03;;;1.30;;
84301;SDS011;74468;52.218;6.896;2024-01-07T09:38:44;2.20;;;1.27;;
84301;SDS011;74468;52.218;6.896;2024-01-07T09:41:09;1.83;;;1.25;;
84301;SDS011;74468;52.218;6.896;2024-01-07T09:43:35;1.83;;;1.30;;
84301;SDS011;74468;52.218;6.896;2024-01-07T09:46:00;2.35;;;1.30;;
84301;SDS011;74468;52.218;6.896;2024-01-07T09:48:28;2.03;;;1.38;;
84301;SDS011;74468;52.218;6.896;2024-01-07T09:50:53;2.25;;;1.25;;
84301;SDS011;74468;52.218;6.896;2024-01-07T09:53:20;1.20;;;1.10;;
84301;SDS011;74468;52.218;6.896;2024-01-07T09:55:52;1.58;;;1.10;;
84301;SDS011;74468;52.218;6.896;2024-01-07T09:58:19;1.60;;;1.13;;
84301;SDS011;74468;52.218;6.896;2024-01-07T10:00:45;2.13;;;1.20;;
84301;SDS011;74468;52.218;6.896;2024-01-07T10:03:11;1.50;;;1.00;;
84301;SDS011;74468;52.218;6.896;2024-01-07T10:05:36;2.15;;;1.15;;
84301;SDS011;74468;52.218;6.896;2024-01-07T10:08:01;1.50;;;1.17;;
84301;SDS011;74468;52.218;6.896;2024-01-07T10:10:27;1.83;;;1.00;;
84301;SDS011;74468;52.218;6.896;2024-01-07T10:12:53;1.92;;;1.00;;
84301;SDS011;74468;52.218;6.896;2024-01-07T10:15:21;1.67;;;1.10;;
84301;SDS011;74468;52.218;6.896;2024-01-07T10:17:47;2.92;;;1.08;;
84301;SDS011;74468;52.218;6.896;2024-01-07T10:20:13;1.52;;;0.98;;
84301;SDS011;74468;52.218;6.896;2024-01-07T10:22:39;1.75;;;1.20;;
84301;SDS011;74468;52.218;6.896;2024-01-07T10:25:04;1.88;;;1.38;;
84301;SDS011;74468;52.218;6.896;2024-01-07T10:27:33;1.40;;;1.00;;
84301;SDS011;74468;52.218;6.896;2024-01-07T10:29:59;2.75;;;0.98;;
84301;SDS011;74468;52.218;6.896;2024-01-07T10:32:24;1.45;;;1.10;;
84301;SDS011;74468;52.218;6.896;2024-01-07T10:34:49;1.90;;;1.10;;
84301;SDS011;74468;52.218;6.896;2024-01-07T10:37:18;1.30;;;1.08;;
84301;SDS011;74468;52.218;6.896;2024-01-07T10:39:44;1.95;;;1.05;;
84301;SDS011;74468;52.218;6.896;2024-01-07T10:42:09;1.48;;;1.10;;
84301;SDS011;74468;52.218;6.896;2024-01-07T10:44:37;1.85;;;1.17;;
84301;SDS011;74468;52.218;6.896;2024-01-07T10:47:03;1.40;;;1.00;;
84301;SDS011;74468;52.218;6.896;2024-01-07T10:49:32;1.45;;;0.93;;
84301;SDS011;74468;52.218;6.896;2024-01-07T10:56:58;2.15;;;1.15;;
84301;SDS011;74468;52.218;6.896;2024-01-07T10:59:32;1.17;;;0.82;;
84301;SDS011;74468;52.218;6.896;2024-01-07T11:01:58;1.33;;;1.23;;
84301;SDS011;74468;52.218;6.896;2024-01-07T11:04:29;3.05;;;1.05;;
84301;SDS011;74468;52.218;6.896;2024-01-07T11:07:08;5.88;;;1.33;;
84301;SDS011;74468;52.218;6.896;2024-01-07T11:09:43;17.65;;;2.83;;
84301;SDS011;74468;52.218;6.896;2024-01-07T11:12:29;8.43;;;1.73;;
84301;SDS011;74468;52.218;6.896;2024-01-07T11:14:56;14.18;;;2.38;;
84301;SDS011;74468;52.218;6.896;2024-01-07T11:17:43;7.82;;;2.00;;
84301;SDS011;74468;52.218;6.896;2024-01-07T11:20:12;6.80;;;1.88;;
84301;SDS011;74468;52.218;6.896;2024-01-07T11:22:41;8.43;;;1.92;;
84301;SDS011;74468;52.218;6.896;2024-01-07T11:25:27;8.60;;;1.75;;
84301;SDS011;74468;52.218;6.896;2024-01-07T11:27:56;18.33;;;3.08;;
84301;SDS011;74468;52.218;6.896;2024-01-07T11:30:22;21.70;;;2.53;;
84301;SDS011;74468;52.218;6.896;2024-01-07T11:32:48;24.15;;;2.80;;
84301;SDS011;74468;52.218;6.896;2024-01-07T11:35:13;17.95;;;2.95;;
84301;SDS011;74468;52.218;6.896;2024-01-07T11:37:39;26.20;;;3.22;;
84301;SDS011;74468;52.218;6.896;2024-01-07T11:40:05;14.82;;;2.13;;
84301;SDS011;74468;52.218;6.896;2024-01-07T11:42:31;13.18;;;2.10;;
84301;SDS011;74468;52.218;6.896;2024-01-07T11:44:57;8.40;;;1.95;;
84301;SDS011;74468;52.218;6.896;2024-01-07T11:47:23;17.52;;;2.20;;
84301;SDS011;74468;52.218;6.896;2024-01-07T11:49:50;10.57;;;2.05;;
84301;SDS011;74468;52.218;6.896;2024-01-07T11:52:16;7.43;;;1.83;;
84301;SDS011;74468;52.218;6.896;2024-01-07T11:54:42;10.35;;;1.80;;
84301;SDS011;74468;52.218;6.896;2024-01-07T11:57:08;8.60;;;1.55;;
84301;SDS011;74468;52.218;6.896;2024-01-07T11:59:34;19.27;;;2.13;;
84301;SDS011;74468;52.218;6.896;2024-01-07T12:02:00;6.10;;;1.10;;
84301;SDS011;74468;52.218;6.896;2024-01-07T12:04:26;6.35;;;1.58;;
84301;SDS011;74468;52.218;6.896;2024-01-07T12:06:53;9.45;;;1.73;;
84301;SDS011;74468;52.218;6.896;2024-01-07T12:09:18;4.18;;;1.23;;
84301;SDS011;74468;52.218;6.896;2024-01-07T12:11:44;3.55;;;1.30;;
84301;SDS011;74468;52.218;6.896;2024-01-07T12:14:09;4.82;;;1.20;;
84301;SDS011;74468;52.218;6.896;2024-01-07T12:16:35;3.35;;;1.40;;
84301;SDS011;74468;52.218;6.896;2024-01-07T12:19:01;6.38;;;1.73;;
84301;SDS011;74468;52.218;6.896;2024-01-07T12:21:27;4.13;;;1.48;;
84301;SDS011;74468;52.218;6.896;2024-01-07T12:23:54;5.68;;;1.10;;
84301;SDS011;74468;52.218;6.896;2024-01-07T12:26:21;2.15;;;1.00;;
84301;SDS011;74468;52.218;6.896;2024-01-07T12:28:54;4.30;;;1.05;;
84301;SDS011;74468;52.218;6.896;2024-01-07T12:31:22;4.03;;;1.60;;
84301;SDS011;74468;52.218;6.896;2024-01-07T12:33:53;3.13;;;1.40;;
84301;SDS011;74468;52.218;6.896;2024-01-07T12:36:22;6.80;;;1.50;;
84301;SDS011;74468;52.218;6.896;2024-01-07T12:38:48;3.22;;;0.90;;
84301;SDS011;74468;52.218;6.896;2024-01-07T12:41:14;6.43;;;1.08;;
84301;SDS011;74468;52.218;6.896;2024-01-07T12:43:40;1.52;;;0.85;;
84301;SDS011;74468;52.218;6.896;2024-01-07T12:46:05;1.88;;;0.98;;
84301;SDS011;74468;52.218;6.896;2024-01-07T12:48:31;6.80;;;1.08;;
84301;SDS011;74468;52.218;6.896;2024-01-07T12:50:57;1.70;;;0.93;;
84301;SDS011;74468;52.218;6.896;2024-01-07T12:53:23;3.83;;;1.73;;
84301;SDS011;74468;52.218;6.896;2024-01-07T12:55:48;4.45;;;1.08;;
84301;SDS011;74468;52.218;6.896;2024-01-07T12:58:14;1.38;;;0.82;;
84301;SDS011;74468;52.218;6.896;2024-01-07T13:00:39;5.88;;;1.45;;
84301;SDS011;74468;52.218;6.896;2024-01-07T13:03:06;5.28;;;1.45;;
84301;SDS011;74468;52.218;6.896;2024-01-07T13:05:32;2.13;;;1.38;;
84301;SDS011;74468;52.218;6.896;2024-01-07T13:07:58;1.20;;;0.80;;
84301;SDS011;74468;52.218;6.896;2024-01-07T13:10:23;1.77;;;0.63;;
84301;SDS011;74468;52.218;6.896;2024-01-07T13:12:49;2.25;;;0.95;;
84301;SDS011;74468;52.218;6.896;2024-01-07T13:15:15;1.52;;;0.95;;
84301;SDS011;74468;52.218;6.896;2024-01-07T13:17:41;4.93;;;1.00;;
84301;SDS011;74468;52.218;6.896;2024-01-07T13:20:06;5.15;;;0.93;;
84301;SDS011;74468;52.218;6.896;2024-01-07T13:22:36;3.38;;;1.20;;
84301;SDS011;74468;52.218;6.896;2024-01-07T13:25:05;1.30;;;0.85;;
84301;SDS011;74468;52.218;6.896;2024-01-07T13:27:31;1.20;;;0.73;;
84301;SDS011;74468;52.218;6.896;2024-01-07T13:29:57;1.60;;;0.70;;
84301;SDS011;74468;52.218;6.896;2024-01-07T13:32:23;4.18;;;0.85;;
84301;SDS011;74468;52.218;6.896;2024-01-07T13:34:49;3.20;;;1.50;;
84301;SDS011;74468;52.218;6.896;2024-01-07T13:37:14;10.38;;;2.97;;
84301;SDS011;74468;52.218;6.896;2024-01-07T13:39:39;21.02;;;6.38;;
84301;SDS011;74468;52.218;6.896;2024-01-07T13:42:05;34.30;;;12.10;;
84301;SDS011;74468;52.218;6.896;2024-01-07T13:44:30;34.58;;;11.65;;
84301;SDS011;74468;52.218;6.896;2024-01-07T13:46:56;35.40;;;12.13;;
84301;SDS011;74468;52.218;6.896;2024-01-07T13:49:22;27.77;;;10.55;;
84301;SDS011;74468;52.218;6.896;2024-01-07T13:51:47;32.05;;;10.85;;
84301;SDS011;74468;52.218;6.896;2024-01-07T13:54:13;33.88;;;11.05;;
84301;SDS011;74468;52.218;6.896;2024-01-07T13:56:43;39.33;;;10.43;;
84301;SDS011;74468;52.218;6.896;2024-01-07T13:59:09;33.38;;;8.85;;
84301;SDS011;74468;52.218;6.896;2024-01-07T14:01:35;26.23;;;9.80;;
84301;SDS011;74468;52.218;6.896;2024-01-07T14:04:01;27.85;;;10.25;;
84301;SDS011;74468;52.218;6.896;2024-01-07T14:06:26;29.08;;;8.65;;
84301;SDS011;74468;52.218;6.896;2024-01-07T14:08:52;28.15;;;7.47;;
84301;SDS011;74468;52.218;6.896;2024-01-07T14:11:17;20.55;;;7.45;;
84301;SDS011;74468;52.218;6.896;2024-01-07T14:13:43;24.38;;;7.63;;
84301;SDS011;74468;52.218;6.896;2024-01-07T14:16:12;18.83;;;6.72;;
84301;SDS011;74468;52.218;6.896;2024-01-07T14:18:38;22.55;;;7.20;;
84301;SDS011;74468;52.218;6.896;2024-01-07T14:21:03;17.88;;;6.45;;
84301;SDS011;74468;52.218;6.896;2024-01-07T14:23:29;22.88;;;7.20;;
84301;SDS011;74468;52.218;6.896;2024-01-07T14:25:56;16.88;;;6.70;;
84301;SDS011;74468;52.218;6.896;2024-01-07T14:28:22;15.35;;;7.10;;
84301;SDS011;74468;52.218;6.896;2024-01-07T14:30:47;15.52;;;6.57;;
84301;SDS011;74468;52.218;6.896;2024-01-07T14:33:12;15.73;;;6.32;;
84301;SDS011;74468;52.218;6.896;2024-01-07T14:35:38;17.50;;;5.45;;
84301;SDS011;74468;52.218;6.896;2024-01-07T14:38:04;15.13;;;5.80;;
84301;SDS011;74468;52.218;6.896;2024-01-07T14:40:29;16.10;;;7.18;;
84301;SDS011;74468;52.218;6.896;2024-01-07T14:42:54;13.40;;;5.50;;
84301;SDS011;74468;52.218;6.896;2024-01-07T14:45:23;17.70;;;4.70;;